sensor_id;sensor_type;location;lat;lon;timestamp;P1;durP1;ratioP1;P2;durP2;ratioP2
33427;SDS011;19769;48.150;16.306;2022-08-19T00:01:47;5.90;;;3.00;;
33427;SDS011;19769;48.150;16.306;2022-08-19T00:04:15;6.18;;;3.13;;
33427;SDS011;19769;48.150;16.306;2022-08-19T00:06:42;6.47;;;3.03;;
33427;SDS011;19769;48.150;16.306;2022-08-19T00:09:11;6.18;;;3.25;;
33427;SDS011;19769;48.150;16.306;2022-08-19T00:11:38;5.75;;;3.22;;
33427;SDS011;19769;48.150;16.306;2022-08-19T00:14:05;8.63;;;3.15;;
33427;SDS011;19769;48.150;16.306;2022-08-19T00:16:32;6.45;;;3.28;;
33427;SDS011;19769;48.150;16.306;2022-08-19T00:18:58;6.82;;;3.13;;
33427;SDS011;19769;48.150;16.306;2022-08-19T00:21:25;6.13;;;3.15;;
33427;SDS011;19769;48.150;16.306;2022-08-19T00:23:54;7.75;;;3.20;;
33427;SDS011;19769;48.150;16.306;2022-08-19T00:26:23;4.30;;;3.03;;
33427;SDS011;19769;48.150;16.306;2022-08-19T00:28:50;5.53;;;3.00;;
33427;SDS011;19769;48.150;16.306;2022-08-19T00:31:16;6.38;;;3.22;;
33427;SDS011;19769;48.150;16.306;2022-08-19T00:33:42;8.27;;;3.25;;
33427;SDS011;19769;48.150;16.306;2022-08-19T00:36:09;7.63;;;3.67;;
33427;SDS011;19769;48.150;16.306;2022-08-19T00:38:36;7.22;;;3.17;;
33427;SDS011;19769;48.150;16.306;2022-08-19T00:41:02;9.25;;;3.53;;
33427;SDS011;19769;48.150;16.306;2022-08-19T00:43:30;6.72;;;3.42;;
33427;SDS011;19769;48.150;16.306;2022-08-19T00:45:56;6.03;;;3.10;;
33427;SDS011;19769;48.150;16.306;2022-08-19T00:48:22;5.75;;;3.40;;
33427;SDS011;19769;48.150;16.306;2022-08-19T00:50:49;7.32;;;3.42;;
33427;SDS011;19769;48.150;16.306;2022-08-19T00:53:17;8.70;;;3.65;;
33427;SDS011;19769;48.150;16.306;2022-08-19T00:55:45;7.32;;;3.15;;
33427;SDS011;19769;48.150;16.306;2022-08-19T00:58:13;7.63;;;3.60;;
33427;SDS011;19769;48.150;16.306;2022-08-19T01:00:39;5.95;;;3.40;;
33427;SDS011;19769;48.150;16.306;2022-08-19T01:03:10;7.82;;;3.10;;
33427;SDS011;19769;48.150;16.306;2022-08-19T01:05:37;6.88;;;3.47;;
33427;SDS011;19769;48.150;16.306;2022-08-19T01:08:04;6.30;;;3.05;;
33427;SDS011;19769;48.150;16.306;2022-08-19T01:10:32;8.93;;;3.55;;
33427;SDS011;19769;48.150;16.306;2022-08-19T01:12:59;8.23;;;3.60;;
33427;SDS011;19769;48.150;16.306;2022-08-19T01:15:28;5.28;;;3.22;;
33427;SDS011;19769;48.150;16.306;2022-08-19T01:17:55;6.80;;;3.58;;
33427;SDS011;19769;48.150;16.306;2022-08-19T01:20:22;8.18;;;3.80;;
33427;SDS011;19769;48.150;16.306;2022-08-19T01:22:50;7.07;;;3.47;;
33427;SDS011;19769;48.150;16.306;2022-08-19T01:25:19;6.10;;;3.58;;
33427;SDS011;19769;48.150;16.306;2022-08-19T01:27:48;6.22;;;3.20;;
33427;SDS011;19769;48.150;16.306;2022-08-19T01:30:17;9.73;;;3.92;;
33427;SDS011;19769;48.150;16.306;2022-08-19T01:32:43;6.85;;;3.70;;
33427;SDS011;19769;48.150;16.306;2022-08-19T01:35:10;6.15;;;3.30;;
33427;SDS011;19769;48.150;16.306;2022-08-19T01:40:41;7.13;;;3.65;;
33427;SDS011;19769;48.150;16.306;2022-08-19T01:43:07;5.95;;;3.45;;
33427;SDS011;19769;48.150;16.306;2022-08-19T01:45:34;7.55;;;3.88;;
33427;SDS011;19769;48.150;16.306;2022-08-19T01:48:00;7.13;;;3.60;;
33427;SDS011;19769;48.150;16.306;2022-08-19T01:50:26;8.48;;;3.80;;
33427;SDS011;19769;48.150;16.306;2022-08-19T01:52:52;5.68;;;3.38;;
33427;SDS011;19769;48.150;16.306;2022-08-19T01:55:19;6.43;;;3.42;;
33427;SDS011;19769;48.150;16.306;2022-08-19T01:57:47;7.20;;;3.35;;
33427;SDS011;19769;48.150;16.306;2022-08-19T02:00:16;8.27;;;3.85;;
33427;SDS011;19769;48.150;16.306;2022-08-19T02:02:43;7.05;;;3.33;;
33427;SDS011;19769;48.150;16.306;2022-08-19T02:05:10;8.07;;;3.70;;
33427;SDS011;19769;48.150;16.306;2022-08-19T02:07:36;8.82;;;3.97;;
33427;SDS011;19769;48.150;16.306;2022-08-19T02:10:03;6.88;;;3.35;;
33427;SDS011;19769;48.150;16.306;2022-08-19T02:12:30;10.20;;;3.92;;
33427;SDS011;19769;48.150;16.306;2022-08-19T02:14:56;6.53;;;3.40;;
33427;SDS011;19769;48.150;16.306;2022-08-19T02:17:22;10.13;;;3.60;;
33427;SDS011;19769;48.150;16.306;2022-08-19T02:19:48;8.27;;;3.42;;
33427;SDS011;19769;48.150;16.306;2022-08-19T02:22:15;6.57;;;3.35;;
33427;SDS011;19769;48.150;16.306;2022-08-19T02:24:41;6.95;;;3.65;;
33427;SDS011;19769;48.150;16.306;2022-08-19T02:27:07;10.93;;;3.90;;
33427;SDS011;19769;48.150;16.306;2022-08-19T02:29:33;8.52;;;3.63;;
33427;SDS011;19769;48.150;16.306;2022-08-19T02:31:59;8.57;;;3.50;;
33427;SDS011;19769;48.150;16.306;2022-08-19T02:34:25;7.95;;;3.80;;
33427;SDS011;19769;48.150;16.306;2022-08-19T02:36:51;8.38;;;3.67;;
33427;SDS011;19769;48.150;16.306;2022-08-19T02:39:18;8.20;;;3.90;;
33427;SDS011;19769;48.150;16.306;2022-08-19T02:41:44;7.15;;;3.63;;
33427;SDS011;19769;48.150;16.306;2022-08-19T02:44:10;8.30;;;3.58;;
33427;SDS011;19769;48.150;16.306;2022-08-19T02:46:37;7.65;;;3.60;;
33427;SDS011;19769;48.150;16.306;2022-08-19T02:49:05;6.47;;;3.47;;
33427;SDS011;19769;48.150;16.306;2022-08-19T02:51:32;7.50;;;3.58;;
33427;SDS011;19769;48.150;16.306;2022-08-19T02:54:00;11.07;;;3.88;;
33427;SDS011;19769;48.150;16.306;2022-08-19T02:56:26;8.05;;;3.80;;
33427;SDS011;19769;48.150;16.306;2022-08-19T02:58:56;8.02;;;3.75;;
33427;SDS011;19769;48.150;16.306;2022-08-19T03:01:24;9.00;;;3.75;;
33427;SDS011;19769;48.150;16.306;2022-08-19T03:03:51;8.75;;;4.00;;
33427;SDS011;19769;48.150;16.306;2022-08-19T03:06:18;9.15;;;3.75;;
33427;SDS011;19769;48.150;16.306;2022-08-19T03:08:45;8.85;;;3.63;;
33427;SDS011;19769;48.150;16.306;2022-08-19T03:11:13;7.47;;;3.85;;
33427;SDS011;19769;48.150;16.306;2022-08-19T03:13:39;7.57;;;4.13;;
33427;SDS011;19769;48.150;16.306;2022-08-19T03:16:05;8.48;;;4.25;;
33427;SDS011;19769;48.150;16.306;2022-08-19T03:18:31;9.23;;;3.90;;
33427;SDS011;19769;48.150;16.306;2022-08-19T03:20:57;8.40;;;3.85;;
33427;SDS011;19769;48.150;16.306;2022-08-19T03:23:24;9.05;;;4.57;;
33427;SDS011;19769;48.150;16.306;2022-08-19T03:25:50;8.38;;;4.32;;
33427;SDS011;19769;48.150;16.306;2022-08-19T03:28:17;7.88;;;4.28;;
33427;SDS011;19769;48.150;16.306;2022-08-19T03:30:53;6.80;;;4.38;;
33427;SDS011;19769;48.150;16.306;2022-08-19T03:33:21;7.85;;;4.53;;
33427;SDS011;19769;48.150;16.306;2022-08-19T03:35:47;8.35;;;4.10;;
33427;SDS011;19769;48.150;16.306;2022-08-19T03:38:24;9.90;;;4.47;;
33427;SDS011;19769;48.150;16.306;2022-08-19T03:40:50;8.75;;;4.30;;
33427;SDS011;19769;48.150;16.306;2022-08-19T03:43:17;8.18;;;4.18;;
33427;SDS011;19769;48.150;16.306;2022-08-19T03:45:44;8.93;;;4.25;;
33427;SDS011;19769;48.150;16.306;2022-08-19T03:48:10;6.90;;;4.32;;
33427;SDS011;19769;48.150;16.306;2022-08-19T03:50:39;6.88;;;4.53;;
33427;SDS011;19769;48.150;16.306;2022-08-19T03:53:06;7.75;;;4.50;;
33427;SDS011;19769;48.150;16.306;2022-08-19T03:55:39;7.63;;;4.60;;
33427;SDS011;19769;48.150;16.306;2022-08-19T03:58:05;8.97;;;5.07;;
33427;SDS011;19769;48.150;16.306;2022-08-19T04:00:32;9.25;;;5.38;;
33427;SDS011;19769;48.150;16.306;2022-08-19T04:02:58;10.10;;;5.78;;
33427;SDS011;19769;48.150;16.306;2022-08-19T04:05:28;10.13;;;5.05;;
33427;SDS011;19769;48.150;16.306;2022-08-19T04:07:55;10.27;;;5.53;;
33427;SDS011;19769;48.150;16.306;2022-08-19T04:10:24;10.13;;;5.30;;
33427;SDS011;19769;48.150;16.306;2022-08-19T04:12:50;10.20;;;5.50;;
33427;SDS011;19769;48.150;16.306;2022-08-19T04:15:16;10.27;;;5.53;;
33427;SDS011;19769;48.150;16.306;2022-08-19T04:17:42;8.73;;;5.15;;
33427;SDS011;19769;48.150;16.306;2022-08-19T04:20:09;7.97;;;4.85;;
33427;SDS011;19769;48.150;16.306;2022-08-19T04:22:35;8.55;;;5.30;;
33427;SDS011;19769;48.150;16.306;2022-08-19T04:25:01;7.80;;;5.38;;
33427;SDS011;19769;48.150;16.306;2022-08-19T04:27:27;7.32;;;5.05;;
33427;SDS011;19769;48.150;16.306;2022-08-19T04:29:54;8.90;;;5.25;;
33427;SDS011;19769;48.150;16.306;2022-08-19T04:32:20;8.30;;;5.20;;
33427;SDS011;19769;48.150;16.306;2022-08-19T04:34:47;8.13;;;5.00;;
33427;SDS011;19769;48.150;16.306;2022-08-19T04:37:14;8.73;;;5.53;;
33427;SDS011;19769;48.150;16.306;2022-08-19T04:39:40;8.88;;;5.13;;
33427;SDS011;19769;48.150;16.306;2022-08-19T04:42:25;8.65;;;5.45;;
33427;SDS011;19769;48.150;16.306;2022-08-19T04:45:07;9.75;;;5.82;;
33427;SDS011;19769;48.150;16.306;2022-08-19T04:47:38;7.25;;;5.53;;
33427;SDS011;19769;48.150;16.306;2022-08-19T04:50:05;9.23;;;5.50;;
33427;SDS011;19769;48.150;16.306;2022-08-19T04:52:31;9.73;;;5.95;;
33427;SDS011;19769;48.150;16.306;2022-08-19T04:54:57;8.77;;;5.35;;
33427;SDS011;19769;48.150;16.306;2022-08-19T04:57:24;8.15;;;5.43;;
33427;SDS011;19769;48.150;16.306;2022-08-19T04:59:55;10.40;;;6.15;;
33427;SDS011;19769;48.150;16.306;2022-08-19T05:02:21;10.60;;;6.20;;
33427;SDS011;19769;48.150;16.306;2022-08-19T05:04:49;9.32;;;6.10;;
33427;SDS011;19769;48.150;16.306;2022-08-19T05:07:16;10.60;;;5.78;;
33427;SDS011;19769;48.150;16.306;2022-08-19T05:09:42;9.40;;;6.60;;
33427;SDS011;19769;48.150;16.306;2022-08-19T05:12:08;12.48;;;6.63;;
33427;SDS011;19769;48.150;16.306;2022-08-19T05:14:34;9.88;;;7.15;;
33427;SDS011;19769;48.150;16.306;2022-08-19T05:17:01;9.88;;;7.00;;
33427;SDS011;19769;48.150;16.306;2022-08-19T05:19:27;9.27;;;6.93;;
33427;SDS011;19769;48.150;16.306;2022-08-19T05:22:12;10.00;;;7.30;;
33427;SDS011;19769;48.150;16.306;2022-08-19T05:24:57;10.82;;;7.38;;
33427;SDS011;19769;48.150;16.306;2022-08-19T05:27:23;9.95;;;7.03;;
33427;SDS011;19769;48.150;16.306;2022-08-19T05:29:49;10.70;;;6.90;;
33427;SDS011;19769;48.150;16.306;2022-08-19T05:32:15;9.75;;;7.00;;
33427;SDS011;19769;48.150;16.306;2022-08-19T05:34:41;9.60;;;7.00;;
33427;SDS011;19769;48.150;16.306;2022-08-19T05:37:07;10.45;;;6.90;;
33427;SDS011;19769;48.150;16.306;2022-08-19T05:39:35;10.15;;;7.28;;
33427;SDS011;19769;48.150;16.306;2022-08-19T05:42:07;10.98;;;7.30;;
33427;SDS011;19769;48.150;16.306;2022-08-19T05:44:36;8.55;;;7.32;;
33427;SDS011;19769;48.150;16.306;2022-08-19T05:47:10;11.20;;;7.53;;
33427;SDS011;19769;48.150;16.306;2022-08-19T05:49:37;9.75;;;7.95;;
33427;SDS011;19769;48.150;16.306;2022-08-19T05:52:04;13.32;;;8.32;;
33427;SDS011;19769;48.150;16.306;2022-08-19T05:54:32;13.98;;;9.05;;
33427;SDS011;19769;48.150;16.306;2022-08-19T05:56:57;13.60;;;8.43;;
33427;SDS011;19769;48.150;16.306;2022-08-19T05:59:25;10.52;;;8.48;;
33427;SDS011;19769;48.150;16.306;2022-08-19T06:01:51;11.82;;;9.05;;
33427;SDS011;19769;48.150;16.306;2022-08-19T06:04:20;10.88;;;8.65;;
33427;SDS011;19769;48.150;16.306;2022-08-19T06:06:47;12.07;;;7.90;;
33427;SDS011;19769;48.150;16.306;2022-08-19T06:09:13;13.07;;;9.15;;
33427;SDS011;19769;48.150;16.306;2022-08-19T06:11:40;12.48;;;8.52;;
33427;SDS011;19769;48.150;16.306;2022-08-19T06:14:13;14.05;;;8.38;;
33427;SDS011;19769;48.150;16.306;2022-08-19T06:16:44;11.95;;;8.93;;
33427;SDS011;19769;48.150;16.306;2022-08-19T06:19:14;8.60;;;7.70;;
33427;SDS011;19769;48.150;16.306;2022-08-19T06:21:41;10.38;;;9.07;;
33427;SDS011;19769;48.150;16.306;2022-08-19T06:24:10;11.90;;;8.70;;
33427;SDS011;19769;48.150;16.306;2022-08-19T06:26:40;17.15;;;15.35;;
33427;SDS011;19769;48.150;16.306;2022-08-19T06:29:07;11.68;;;9.38;;
33427;SDS011;19769;48.150;16.306;2022-08-19T06:31:33;13.77;;;11.48;;
33427;SDS011;19769;48.150;16.306;2022-08-19T06:34:01;11.90;;;8.57;;
33427;SDS011;19769;48.150;16.306;2022-08-19T06:36:38;9.48;;;7.53;;
33427;SDS011;19769;48.150;16.306;2022-08-19T06:39:13;9.98;;;7.63;;
33427;SDS011;19769;48.150;16.306;2022-08-19T06:41:41;9.00;;;7.43;;
33427;SDS011;19769;48.150;16.306;2022-08-19T06:44:15;8.65;;;7.32;;
33427;SDS011;19769;48.150;16.306;2022-08-19T06:46:42;10.57;;;7.85;;
33427;SDS011;19769;48.150;16.306;2022-08-19T06:49:08;11.52;;;8.27;;
33427;SDS011;19769;48.150;16.306;2022-08-19T06:51:39;9.82;;;8.15;;
33427;SDS011;19769;48.150;16.306;2022-08-19T06:54:05;9.40;;;8.07;;
33427;SDS011;19769;48.150;16.306;2022-08-19T06:56:31;9.27;;;7.10;;
33427;SDS011;19769;48.150;16.306;2022-08-19T06:59:02;10.30;;;7.63;;
33427;SDS011;19769;48.150;16.306;2022-08-19T07:01:29;7.95;;;7.15;;
33427;SDS011;19769;48.150;16.306;2022-08-19T07:03:55;8.05;;;7.15;;
33427;SDS011;19769;48.150;16.306;2022-08-19T07:06:22;7.00;;;6.30;;
33427;SDS011;19769;48.150;16.306;2022-08-19T07:08:48;9.25;;;6.95;;
33427;SDS011;19769;48.150;16.306;2022-08-19T07:11:16;8.80;;;6.90;;
33427;SDS011;19769;48.150;16.306;2022-08-19T07:13:44;8.70;;;6.50;;
33427;SDS011;19769;48.150;16.306;2022-08-19T07:16:15;6.63;;;5.95;;
33427;SDS011;19769;48.150;16.306;2022-08-19T07:18:42;6.93;;;6.22;;
33427;SDS011;19769;48.150;16.306;2022-08-19T07:21:11;7.22;;;6.18;;
33427;SDS011;19769;48.150;16.306;2022-08-19T07:23:37;7.03;;;5.75;;
33427;SDS011;19769;48.150;16.306;2022-08-19T07:26:04;7.30;;;6.28;;
33427;SDS011;19769;48.150;16.306;2022-08-19T07:28:31;6.85;;;6.15;;
33427;SDS011;19769;48.150;16.306;2022-08-19T07:30:57;8.07;;;6.00;;
33427;SDS011;19769;48.150;16.306;2022-08-19T07:33:23;8.73;;;6.45;;
33427;SDS011;19769;48.150;16.306;2022-08-19T07:35:49;8.27;;;6.15;;
33427;SDS011;19769;48.150;16.306;2022-08-19T07:38:15;7.72;;;5.95;;
33427;SDS011;19769;48.150;16.306;2022-08-19T07:40:41;6.07;;;5.47;;
33427;SDS011;19769;48.150;16.306;2022-08-19T07:43:08;7.88;;;6.30;;
33427;SDS011;19769;48.150;16.306;2022-08-19T07:45:34;7.00;;;5.53;;
33427;SDS011;19769;48.150;16.306;2022-08-19T07:48:00;9.45;;;5.90;;
33427;SDS011;19769;48.150;16.306;2022-08-19T07:50:26;8.95;;;6.15;;
33427;SDS011;19769;48.150;16.306;2022-08-19T07:52:53;9.73;;;6.30;;
33427;SDS011;19769;48.150;16.306;2022-08-19T07:55:20;7.22;;;5.78;;
33427;SDS011;19769;48.150;16.306;2022-08-19T07:57:46;6.70;;;5.90;;
33427;SDS011;19769;48.150;16.306;2022-08-19T08:00:13;7.05;;;6.32;;
33427;SDS011;19769;48.150;16.306;2022-08-19T08:02:39;7.25;;;6.13;;
33427;SDS011;19769;48.150;16.306;2022-08-19T08:05:08;6.60;;;5.85;;
33427;SDS011;19769;48.150;16.306;2022-08-19T08:07:54;8.85;;;6.40;;
33427;SDS011;19769;48.150;16.306;2022-08-19T08:10:39;10.90;;;6.20;;
33427;SDS011;19769;48.150;16.306;2022-08-19T08:13:05;8.48;;;6.00;;
33427;SDS011;19769;48.150;16.306;2022-08-19T08:15:31;8.57;;;5.80;;
33427;SDS011;19769;48.150;16.306;2022-08-19T08:17:58;7.55;;;6.10;;
33427;SDS011;19769;48.150;16.306;2022-08-19T08:20:24;7.40;;;6.30;;
33427;SDS011;19769;48.150;16.306;2022-08-19T08:22:50;7.78;;;6.13;;
33427;SDS011;19769;48.150;16.306;2022-08-19T08:25:35;8.25;;;5.80;;
33427;SDS011;19769;48.150;16.306;2022-08-19T08:28:02;6.57;;;5.95;;
33427;SDS011;19769;48.150;16.306;2022-08-19T08:30:29;8.23;;;5.55;;
33427;SDS011;19769;48.150;16.306;2022-08-19T08:32:57;7.70;;;5.38;;
33427;SDS011;19769;48.150;16.306;2022-08-19T08:35:24;8.95;;;5.60;;
33427;SDS011;19769;48.150;16.306;2022-08-19T08:37:51;8.32;;;5.88;;
33427;SDS011;19769;48.150;16.306;2022-08-19T08:42:58;6.65;;;5.20;;
33427;SDS011;19769;48.150;16.306;2022-08-19T08:45:28;10.27;;;6.13;;
33427;SDS011;19769;48.150;16.306;2022-08-19T08:47:55;8.32;;;5.40;;
33427;SDS011;19769;48.150;16.306;2022-08-19T08:50:26;8.07;;;5.60;;
33427;SDS011;19769;48.150;16.306;2022-08-19T08:52:53;6.68;;;5.30;;
33427;SDS011;19769;48.150;16.306;2022-08-19T08:55:23;7.75;;;5.82;;
33427;SDS011;19769;48.150;16.306;2022-08-19T09:00:20;7.25;;;5.57;;
33427;SDS011;19769;48.150;16.306;2022-08-19T09:02:47;7.38;;;5.78;;
33427;SDS011;19769;48.150;16.306;2022-08-19T09:05:13;6.15;;;5.40;;
33427;SDS011;19769;48.150;16.306;2022-08-19T09:10:21;6.57;;;5.40;;
33427;SDS011;19769;48.150;16.306;2022-08-19T09:15:18;8.68;;;5.30;;
33427;SDS011;19769;48.150;16.306;2022-08-19T09:17:48;7.43;;;5.50;;
33427;SDS011;19769;48.150;16.306;2022-08-19T09:20:16;10.23;;;6.05;;
33427;SDS011;19769;48.150;16.306;2022-08-19T09:22:43;7.93;;;6.43;;
33427;SDS011;19769;48.150;16.306;2022-08-19T09:25:10;7.25;;;5.63;;
33427;SDS011;19769;48.150;16.306;2022-08-19T09:27:37;9.70;;;6.00;;
33427;SDS011;19769;48.150;16.306;2022-08-19T09:30:05;9.55;;;5.90;;
33427;SDS011;19769;48.150;16.306;2022-08-19T09:32:32;8.30;;;5.90;;
33427;SDS011;19769;48.150;16.306;2022-08-19T09:34:59;8.48;;;6.05;;
33427;SDS011;19769;48.150;16.306;2022-08-19T09:37:25;9.65;;;6.20;;
33427;SDS011;19769;48.150;16.306;2022-08-19T09:39:52;8.20;;;6.15;;
33427;SDS011;19769;48.150;16.306;2022-08-19T09:42:19;7.85;;;5.88;;
33427;SDS011;19769;48.150;16.306;2022-08-19T09:44:45;8.02;;;5.57;;
33427;SDS011;19769;48.150;16.306;2022-08-19T09:47:12;9.35;;;6.10;;
33427;SDS011;19769;48.150;16.306;2022-08-19T09:49:39;8.13;;;5.20;;
33427;SDS011;19769;48.150;16.306;2022-08-19T09:52:05;7.70;;;5.88;;
33427;SDS011;19769;48.150;16.306;2022-08-19T09:54:32;9.60;;;6.00;;
33427;SDS011;19769;48.150;16.306;2022-08-19T09:56:59;7.55;;;5.65;;
33427;SDS011;19769;48.150;16.306;2022-08-19T09:59:25;9.23;;;5.45;;
33427;SDS011;19769;48.150;16.306;2022-08-19T10:01:51;8.00;;;5.53;;
33427;SDS011;19769;48.150;16.306;2022-08-19T10:04:18;9.35;;;5.28;;
33427;SDS011;19769;48.150;16.306;2022-08-19T10:06:46;8.43;;;5.50;;
33427;SDS011;19769;48.150;16.306;2022-08-19T10:09:13;6.88;;;5.40;;
33427;SDS011;19769;48.150;16.306;2022-08-19T10:11:40;8.65;;;5.60;;
33427;SDS011;19769;48.150;16.306;2022-08-19T10:14:07;9.23;;;6.13;;
33427;SDS011;19769;48.150;16.306;2022-08-19T10:16:33;7.85;;;5.60;;
33427;SDS011;19769;48.150;16.306;2022-08-19T10:19:01;8.77;;;5.55;;
33427;SDS011;19769;48.150;16.306;2022-08-19T10:21:29;7.50;;;5.55;;
33427;SDS011;19769;48.150;16.306;2022-08-19T10:23:56;7.68;;;5.93;;
33427;SDS011;19769;48.150;16.306;2022-08-19T10:26:24;9.73;;;5.80;;
33427;SDS011;19769;48.150;16.306;2022-08-19T10:28:51;8.80;;;5.65;;
33427;SDS011;19769;48.150;16.306;2022-08-19T10:31:19;7.38;;;5.60;;
33427;SDS011;19769;48.150;16.306;2022-08-19T10:33:46;7.55;;;5.50;;
33427;SDS011;19769;48.150;16.306;2022-08-19T10:36:14;8.07;;;5.22;;
33427;SDS011;19769;48.150;16.306;2022-08-19T10:38:42;10.25;;;5.65;;
33427;SDS011;19769;48.150;16.306;2022-08-19T10:41:14;9.00;;;5.63;;
33427;SDS011;19769;48.150;16.306;2022-08-19T10:43:41;7.72;;;5.57;;
33427;SDS011;19769;48.150;16.306;2022-08-19T10:46:08;9.18;;;5.47;;
33427;SDS011;19769;48.150;16.306;2022-08-19T10:48:34;8.70;;;5.65;;
33427;SDS011;19769;48.150;16.306;2022-08-19T10:51:01;8.15;;;5.60;;
33427;SDS011;19769;48.150;16.306;2022-08-19T10:53:46;10.63;;;5.88;;
33427;SDS011;19769;48.150;16.306;2022-08-19T10:56:12;9.32;;;6.30;;
33427;SDS011;19769;48.150;16.306;2022-08-19T10:58:57;8.82;;;5.80;;
33427;SDS011;19769;48.150;16.306;2022-08-19T11:01:24;9.48;;;5.90;;
33427;SDS011;19769;48.150;16.306;2022-08-19T11:03:51;10.48;;;5.80;;
33427;SDS011;19769;48.150;16.306;2022-08-19T11:06:17;9.27;;;5.63;;
33427;SDS011;19769;48.150;16.306;2022-08-19T11:08:45;10.60;;;5.22;;
33427;SDS011;19769;48.150;16.306;2022-08-19T11:11:11;9.18;;;5.45;;
33427;SDS011;19769;48.150;16.306;2022-08-19T11:13:38;12.35;;;5.80;;
33427;SDS011;19769;48.150;16.306;2022-08-19T11:16:06;8.02;;;5.22;;
33427;SDS011;19769;48.150;16.306;2022-08-19T11:18:38;10.43;;;5.75;;
33427;SDS011;19769;48.150;16.306;2022-08-19T11:21:15;9.82;;;5.30;;
33427;SDS011;19769;48.150;16.306;2022-08-19T11:23:44;10.18;;;6.05;;
33427;SDS011;19769;48.150;16.306;2022-08-19T11:26:12;12.25;;;5.75;;
33427;SDS011;19769;48.150;16.306;2022-08-19T11:28:39;11.00;;;5.82;;
33427;SDS011;19769;48.150;16.306;2022-08-19T11:31:15;13.35;;;5.60;;
33427;SDS011;19769;48.150;16.306;2022-08-19T11:33:43;8.77;;;5.57;;
33427;SDS011;19769;48.150;16.306;2022-08-19T11:36:11;12.73;;;4.85;;
33427;SDS011;19769;48.150;16.306;2022-08-19T11:38:37;12.05;;;5.15;;
33427;SDS011;19769;48.150;16.306;2022-08-19T11:41:05;12.07;;;4.80;;
33427;SDS011;19769;48.150;16.306;2022-08-19T11:43:32;10.60;;;4.57;;
33427;SDS011;19769;48.150;16.306;2022-08-19T11:45:59;12.23;;;4.13;;
33427;SDS011;19769;48.150;16.306;2022-08-19T11:48:26;11.38;;;3.90;;
33427;SDS011;19769;48.150;16.306;2022-08-19T11:50:52;8.98;;;4.03;;
33427;SDS011;19769;48.150;16.306;2022-08-19T11:53:22;14.15;;;4.00;;
33427;SDS011;19769;48.150;16.306;2022-08-19T11:55:49;13.63;;;4.03;;
33427;SDS011;19769;48.150;16.306;2022-08-19T11:58:16;12.95;;;4.28;;
33427;SDS011;19769;48.150;16.306;2022-08-19T12:00:43;16.58;;;4.20;;
33427;SDS011;19769;48.150;16.306;2022-08-19T12:03:10;12.27;;;3.95;;
33427;SDS011;19769;48.150;16.306;2022-08-19T12:05:37;12.90;;;4.53;;
33427;SDS011;19769;48.150;16.306;2022-08-19T12:08:04;13.50;;;5.10;;
33427;SDS011;19769;48.150;16.306;2022-08-19T12:10:31;14.50;;;4.75;;
33427;SDS011;19769;48.150;16.306;2022-08-19T12:12:57;17.13;;;4.78;;
33427;SDS011;19769;48.150;16.306;2022-08-19T12:15:23;13.00;;;4.53;;
33427;SDS011;19769;48.150;16.306;2022-08-19T12:17:50;17.42;;;5.10;;
33427;SDS011;19769;48.150;16.306;2022-08-19T12:20:22;14.60;;;5.17;;
33427;SDS011;19769;48.150;16.306;2022-08-19T12:22:48;14.85;;;4.78;;
33427;SDS011;19769;48.150;16.306;2022-08-19T12:25:15;12.57;;;5.00;;
33427;SDS011;19769;48.150;16.306;2022-08-19T12:27:41;18.85;;;5.55;;
33427;SDS011;19769;48.150;16.306;2022-08-19T12:30:09;17.63;;;5.35;;
33427;SDS011;19769;48.150;16.306;2022-08-19T12:32:35;17.58;;;5.72;;
33427;SDS011;19769;48.150;16.306;2022-08-19T12:35:02;15.80;;;4.97;;
33427;SDS011;19769;48.150;16.306;2022-08-19T12:37:28;14.45;;;4.97;;
33427;SDS011;19769;48.150;16.306;2022-08-19T12:39:55;15.43;;;5.38;;
33427;SDS011;19769;48.150;16.306;2022-08-19T12:42:21;12.45;;;4.90;;
33427;SDS011;19769;48.150;16.306;2022-08-19T12:44:47;13.85;;;5.18;;
33427;SDS011;19769;48.150;16.306;2022-08-19T12:47:13;12.82;;;4.90;;
33427;SDS011;19769;48.150;16.306;2022-08-19T12:49:40;13.95;;;5.35;;
33427;SDS011;19769;48.150;16.306;2022-08-19T12:52:07;14.30;;;5.88;;
33427;SDS011;19769;48.150;16.306;2022-08-19T12:54:34;12.57;;;5.65;;
33427;SDS011;19769;48.150;16.306;2022-08-19T12:57:00;15.57;;;5.82;;
33427;SDS011;19769;48.150;16.306;2022-08-19T12:59:30;10.10;;;5.35;;
33427;SDS011;19769;48.150;16.306;2022-08-19T13:01:56;14.20;;;6.07;;
33427;SDS011;19769;48.150;16.306;2022-08-19T13:04:22;13.73;;;5.40;;
33427;SDS011;19769;48.150;16.306;2022-08-19T13:06:49;15.13;;;5.90;;
33427;SDS011;19769;48.150;16.306;2022-08-19T13:09:15;13.73;;;5.30;;
33427;SDS011;19769;48.150;16.306;2022-08-19T13:11:42;14.30;;;5.60;;
33427;SDS011;19769;48.150;16.306;2022-08-19T13:14:08;13.50;;;5.40;;
33427;SDS011;19769;48.150;16.306;2022-08-19T13:16:36;14.88;;;5.13;;
33427;SDS011;19769;48.150;16.306;2022-08-19T13:19:03;15.30;;;5.40;;
33427;SDS011;19769;48.150;16.306;2022-08-19T13:21:30;12.57;;;5.38;;
33427;SDS011;19769;48.150;16.306;2022-08-19T13:23:56;11.05;;;5.10;;
33427;SDS011;19769;48.150;16.306;2022-08-19T13:26:23;11.57;;;5.40;;
33427;SDS011;19769;48.150;16.306;2022-08-19T13:28:50;13.20;;;5.15;;
33427;SDS011;19769;48.150;16.306;2022-08-19T13:31:35;12.82;;;5.30;;
33427;SDS011;19769;48.150;16.306;2022-08-19T13:34:41;14.60;;;5.38;;
33427;SDS011;19769;48.150;16.306;2022-08-19T13:37:07;13.57;;;5.35;;
33427;SDS011;19769;48.150;16.306;2022-08-19T13:39:33;14.13;;;5.72;;
33427;SDS011;19769;48.150;16.306;2022-08-19T13:42:00;14.05;;;5.70;;
33427;SDS011;19769;48.150;16.306;2022-08-19T13:44:27;8.65;;;5.03;;
33427;SDS011;19769;48.150;16.306;2022-08-19T13:46:54;12.35;;;5.43;;
33427;SDS011;19769;48.150;16.306;2022-08-19T13:49:21;13.60;;;6.10;;
33427;SDS011;19769;48.150;16.306;2022-08-19T13:51:48;12.05;;;5.50;;
33427;SDS011;19769;48.150;16.306;2022-08-19T13:54:14;11.18;;;5.38;;
33427;SDS011;19769;48.150;16.306;2022-08-19T13:56:44;9.48;;;4.78;;
33427;SDS011;19769;48.150;16.306;2022-08-19T13:59:10;10.73;;;4.85;;
33427;SDS011;19769;48.150;16.306;2022-08-19T14:01:36;12.10;;;5.68;;
33427;SDS011;19769;48.150;16.306;2022-08-19T14:04:03;12.93;;;5.30;;
33427;SDS011;19769;48.150;16.306;2022-08-19T14:06:31;10.15;;;5.50;;
33427;SDS011;19769;48.150;16.306;2022-08-19T14:08:57;15.00;;;5.30;;
33427;SDS011;19769;48.150;16.306;2022-08-19T14:11:23;12.63;;;4.93;;
33427;SDS011;19769;48.150;16.306;2022-08-19T14:13:49;12.95;;;4.50;;
33427;SDS011;19769;48.150;16.306;2022-08-19T14:16:16;11.82;;;4.53;;
33427;SDS011;19769;48.150;16.306;2022-08-19T14:18:42;10.98;;;3.95;;
33427;SDS011;19769;48.150;16.306;2022-08-19T14:21:17;12.00;;;4.47;;
33427;SDS011;19769;48.150;16.306;2022-08-19T14:23:43;10.23;;;4.55;;
33427;SDS011;19769;48.150;16.306;2022-08-19T14:26:11;11.80;;;4.38;;
33427;SDS011;19769;48.150;16.306;2022-08-19T14:28:39;12.25;;;5.10;;
33427;SDS011;19769;48.150;16.306;2022-08-19T14:31:07;11.60;;;4.50;;
33427;SDS011;19769;48.150;16.306;2022-08-19T14:33:33;12.30;;;4.20;;
33427;SDS011;19769;48.150;16.306;2022-08-19T14:35:59;10.88;;;4.13;;
33427;SDS011;19769;48.150;16.306;2022-08-19T14:38:26;10.27;;;4.03;;
33427;SDS011;19769;48.150;16.306;2022-08-19T14:43:52;8.32;;;3.00;;
33427;SDS011;19769;48.150;16.306;2022-08-19T14:46:20;6.50;;;2.72;;
33427;SDS011;19769;48.150;16.306;2022-08-19T14:48:46;10.43;;;2.97;;
33427;SDS011;19769;48.150;16.306;2022-08-19T14:51:13;11.05;;;3.03;;